createdAt,value
2018-10-11T00:01:39.282Z,45.20
2018-10-11T00:04:07.790Z,36.83
2018-10-11T00:06:36.259Z,41.93
2018-10-11T00:09:07.139Z,39.93
2018-10-11T00:11:35.591Z,40.87
2018-10-11T00:14:04.052Z,36.10
2018-10-11T00:16:32.554Z,38.13
2018-10-11T00:19:01.019Z,31.03
2018-10-11T00:21:29.491Z,29.00
2018-10-11T00:23:57.958Z,34.57
2018-10-11T00:26:26.465Z,30.37
2018-10-11T00:28:55.015Z,27.37
2018-10-11T00:31:23.482Z,28.33
2018-10-11T00:33:51.930Z,29.87
2018-10-11T00:36:20.394Z,30.93
2018-10-11T00:38:48.851Z,42.93
2018-10-11T00:41:17.406Z,34.47
2018-10-11T00:43:45.859Z,33.03
2018-10-11T00:46:14.335Z,30.50
2018-10-11T00:48:42.783Z,32.40
2018-10-11T00:51:11.260Z,25.40
2018-10-11T00:53:39.722Z,33.93
2018-10-11T00:56:08.222Z,27.67
2018-10-11T00:58:36.683Z,30.33
2018-10-11T01:01:05.151Z,36.03
2018-10-11T01:03:33.606Z,38.90
2018-10-11T01:06:02.101Z,33.37
2018-10-11T01:08:30.631Z,32.63
2018-10-11T01:10:59.086Z,29.30
2018-10-11T01:13:27.555Z,28.07
2018-10-11T01:15:56.016Z,26.80
2018-10-11T01:18:24.583Z,25.70
2018-10-11T01:20:53.193Z,26.20
2018-10-11T01:23:21.646Z,24.23
2018-10-11T01:25:50.123Z,23.80
2018-10-11T01:28:18.591Z,22.37
2018-10-11T01:30:52.434Z,26.03
2018-10-11T01:33:20.894Z,27.20
2018-10-11T01:35:49.346Z,27.03
2018-10-11T01:38:17.821Z,21.33
2018-10-11T01:40:46.358Z,22.63
2018-10-11T01:43:14.884Z,21.70
2018-10-11T01:45:43.366Z,20.90
2018-10-11T01:48:11.882Z,21.93
2018-10-11T01:50:40.385Z,29.03
2018-10-11T01:53:08.906Z,22.33
2018-10-11T01:55:37.379Z,25.13
2018-10-11T01:58:05.890Z,22.83
2018-10-11T02:00:34.359Z,24.80
2018-10-11T02:03:02.818Z,22.13
2018-10-11T02:05:31.334Z,23.03
2018-10-11T02:08:00.131Z,24.13
2018-10-11T02:10:29.423Z,23.67
2018-10-11T02:12:58.743Z,22.87
2018-10-11T02:15:27.927Z,22.00
2018-10-11T02:17:57.042Z,21.70
2018-10-11T02:20:25.827Z,25.90
2018-10-11T02:22:54.311Z,20.00
2018-10-11T02:25:22.795Z,20.70
2018-10-11T02:27:51.262Z,20.67
2018-10-11T02:30:19.764Z,21.33
2018-10-11T02:32:48.248Z,24.13
2018-10-11T02:35:16.698Z,24.57
2018-10-11T02:37:45.158Z,21.57
2018-10-11T02:40:13.611Z,24.83
2018-10-11T02:42:42.093Z,24.57
2018-10-11T02:45:10.560Z,22.13
2018-10-11T02:47:39.038Z,26.70
2018-10-11T02:50:07.607Z,19.70
2018-10-11T02:52:36.059Z,28.20
2018-10-11T02:55:04.959Z,24.70
2018-10-11T02:57:44.610Z,28.47
2018-10-11T03:00:13.154Z,24.17
2018-10-11T03:02:42.900Z,25.17
2018-10-11T03:05:16.618Z,29.67
2018-10-11T03:07:45.244Z,24.00
2018-10-11T03:10:14.040Z,24.90
2018-10-11T03:12:51.545Z,24.97
2018-10-11T03:15:20.030Z,29.13
2018-10-11T03:17:48.550Z,22.13
2018-10-11T03:20:17.082Z,21.73
2018-10-11T03:22:45.557Z,24.43
2018-10-11T03:25:14.044Z,32.90
2018-10-11T03:27:42.519Z,25.53
2018-10-11T03:30:13.814Z,25.53
2018-10-11T03:32:42.294Z,23.13
2018-10-11T03:35:10.747Z,26.20
2018-10-11T03:37:39.219Z,25.00
2018-10-11T03:40:07.760Z,25.70
2018-10-11T03:42:36.323Z,28.70
2018-10-11T03:45:04.907Z,27.47
2018-10-11T03:47:33.377Z,28.30
2018-10-11T03:50:01.836Z,32.70
2018-10-11T03:52:30.376Z,30.37
2018-10-11T03:54:58.831Z,30.50
2018-10-11T03:57:27.299Z,30.97
2018-10-11T03:59:55.769Z,27.43
2018-10-11T04:02:24.234Z,36.53
2018-10-11T04:04:52.690Z,30.10
2018-10-11T04:07:21.185Z,30.20
2018-10-11T04:09:49.666Z,30.17
2018-10-11T04:12:18.118Z,29.50
2018-10-11T04:14:46.574Z,25.67
2018-10-11T04:17:15.050Z,28.60
2018-10-11T04:19:43.499Z,30.80
2018-10-11T04:22:12.057Z,31.20
2018-10-11T04:24:40.658Z,31.30
2018-10-11T04:27:09.210Z,25.50
2018-10-11T04:29:37.674Z,32.70
2018-10-11T04:32:06.151Z,30.20
2018-10-11T04:34:34.595Z,30.57
2018-10-11T04:37:03.070Z,32.00
2018-10-11T04:39:31.587Z,30.53
2018-10-11T04:42:00.043Z,37.03
2018-10-11T04:44:29.820Z,42.50
2018-10-11T04:46:58.662Z,29.80
2018-10-11T04:49:27.718Z,31.87
2018-10-11T04:51:56.183Z,32.90
2018-10-11T04:54:24.639Z,29.93
2018-10-11T04:56:53.095Z,33.13
2018-10-11T04:59:21.563Z,37.47
2018-10-11T05:01:50.435Z,39.10
2018-10-11T05:04:18.910Z,34.70
2018-10-11T05:06:47.371Z,47.57
2018-10-11T05:09:15.908Z,46.00
2018-10-11T05:11:44.459Z,43.27
2018-10-11T05:14:14.474Z,42.27
2018-10-11T05:16:43.103Z,38.40
2018-10-11T05:19:11.636Z,41.27
2018-10-11T05:21:40.471Z,42.17
2018-10-11T05:24:08.950Z,44.43
2018-10-11T05:26:37.450Z,39.90
2018-10-11T05:29:05.939Z,34.77
2018-10-11T05:31:34.507Z,37.67
2018-10-11T05:34:02.967Z,36.83
2018-10-11T05:36:31.430Z,33.60
2018-10-11T05:38:59.882Z,35.57
2018-10-11T05:41:28.366Z,39.03
2018-10-11T05:43:56.942Z,42.70
2018-10-11T05:46:31.530Z,49.20
2018-10-11T05:49:00.979Z,49.20
2018-10-11T05:51:30.497Z,46.17
2018-10-11T05:53:59.858Z,48.83
2018-10-11T05:56:30.427Z,51.03
2018-10-11T05:58:59.678Z,56.60
2018-10-11T06:01:28.270Z,56.93
2018-10-11T06:03:57.759Z,56.13
2018-10-11T06:06:26.272Z,42.80
2018-10-11T06:08:55.130Z,40.43
2018-10-11T06:11:23.711Z,51.40
2018-10-11T06:13:52.219Z,43.20
2018-10-11T06:16:20.694Z,42.50
2018-10-11T06:18:49.215Z,48.97
2018-10-11T06:21:17.727Z,47.07
2018-10-11T06:23:46.243Z,42.20
2018-10-11T06:26:15.112Z,34.77
2018-10-11T06:28:43.738Z,35.73
2018-10-11T06:31:12.322Z,43.33
2018-10-11T06:33:42.209Z,38.93
2018-10-11T06:36:10.839Z,40.43
2018-10-11T06:38:39.235Z,35.40
2018-10-11T06:41:07.736Z,37.40
2018-10-11T06:43:36.286Z,36.87
2018-10-11T06:46:04.818Z,45.33
2018-10-11T06:48:33.370Z,36.30
2018-10-11T06:51:01.871Z,31.80
2018-10-11T06:53:30.429Z,32.30
2018-10-11T06:55:58.957Z,37.37
2018-10-11T06:58:27.395Z,34.20
2018-10-11T07:00:55.851Z,30.97
2018-10-11T07:03:24.344Z,32.37
2018-10-11T07:05:52.942Z,34.70
2018-10-11T07:08:21.674Z,33.80
2018-10-11T07:10:50.135Z,32.93
2018-10-11T07:13:18.610Z,31.57
2018-10-11T07:15:47.084Z,31.50
2018-10-11T07:18:15.547Z,25.77
2018-10-11T07:20:44.243Z,30.47
2018-10-11T07:23:12.770Z,25.40
2018-10-11T07:25:41.421Z,27.07
2018-10-11T07:28:09.778Z,24.63
2018-10-11T07:30:38.286Z,26.17
2018-10-11T07:33:06.823Z,26.33
2018-10-11T07:35:35.344Z,27.90
2018-10-11T07:38:03.779Z,26.83
2018-10-11T07:40:32.435Z,28.17
2018-10-11T07:43:00.854Z,31.83
2018-10-11T07:45:29.320Z,26.43
2018-10-11T07:47:58.174Z,29.80
2018-10-11T07:50:26.751Z,27.93
2018-10-11T07:52:55.356Z,26.50
2018-10-11T07:55:23.813Z,28.90
2018-10-11T07:57:52.300Z,27.50
2018-10-11T08:00:20.886Z,25.27
2018-10-11T08:02:49.361Z,33.60
2018-10-11T08:05:17.815Z,26.13
2018-10-11T08:07:46.360Z,26.17
2018-10-11T08:10:14.853Z,26.90
2018-10-11T08:12:43.322Z,24.63
2018-10-11T08:15:11.891Z,24.23
2018-10-11T08:17:40.609Z,25.47
2018-10-11T08:20:09.114Z,25.10
2018-10-11T08:22:37.582Z,24.93
2018-10-11T08:25:06.282Z,26.50
2018-10-11T08:27:34.601Z,25.93
2018-10-11T08:30:03.259Z,26.63
2018-10-11T08:32:31.934Z,24.87
2018-10-11T08:35:00.218Z,24.47
2018-10-11T08:37:28.794Z,23.30
2018-10-11T08:39:57.207Z,21.83
2018-10-11T08:42:25.670Z,22.63
2018-10-11T08:44:54.130Z,22.53
2018-10-11T08:47:22.627Z,30.57
2018-10-11T08:49:51.086Z,31.23
2018-10-11T08:52:19.619Z,23.17
2018-10-11T08:54:49.556Z,33.07
2018-10-11T08:57:18.855Z,24.77
2018-10-11T08:59:47.407Z,23.43
2018-10-11T09:02:15.934Z,24.50
2018-10-11T09:04:44.715Z,27.40
2018-10-11T09:07:13.190Z,25.10
2018-10-11T09:09:42.131Z,30.30
2018-10-11T09:12:10.555Z,25.63
2018-10-11T09:14:39.022Z,25.57
2018-10-11T09:17:07.549Z,21.10
2018-10-11T09:19:35.990Z,24.13
2018-10-11T09:22:04.528Z,20.53
2018-10-11T09:24:33.017Z,24.20
2018-10-11T09:27:01.511Z,26.13
2018-10-11T09:29:29.998Z,18.97
2018-10-11T09:31:58.467Z,20.67
2018-10-11T09:34:26.929Z,21.70
2018-10-11T09:36:55.398Z,26.70
2018-10-11T09:39:23.867Z,21.30
2018-10-11T09:41:52.330Z,19.40
2018-10-11T09:44:20.790Z,20.40
2018-10-11T09:46:49.338Z,22.93
2018-10-11T09:49:17.812Z,18.43
2018-10-11T09:51:46.288Z,22.37
2018-10-11T09:54:14.815Z,17.60
2018-10-11T09:57:49.831Z,17.13
2018-10-11T10:00:23.614Z,25.37
2018-10-11T10:02:52.615Z,18.60
2018-10-11T10:05:21.090Z,19.63
2018-10-11T10:07:49.554Z,23.90
2018-10-11T10:10:18.014Z,19.80
2018-10-11T10:12:46.481Z,21.80
2018-10-11T10:15:14.977Z,17.87
2018-10-11T10:17:43.443Z,16.87
2018-10-11T10:20:11.988Z,16.90
2018-10-11T10:22:40.459Z,17.00
2018-10-11T10:25:08.938Z,17.90
2018-10-11T10:27:37.410Z,17.60
2018-10-11T10:30:11.562Z,23.93
2018-10-11T10:32:40.101Z,24.53
2018-10-11T10:35:08.582Z,22.63
2018-10-11T10:37:37.039Z,17.23
2018-10-11T10:40:05.604Z,18.47
2018-10-11T10:42:34.027Z,18.40
2018-10-11T10:45:02.979Z,24.53
2018-10-11T10:47:31.491Z,17.87
2018-10-11T10:49:59.940Z,17.00
2018-10-11T10:52:28.403Z,17.00
2018-10-11T10:54:56.870Z,24.30
2018-10-11T10:57:25.330Z,35.43
2018-10-11T10:59:53.804Z,18.00
2018-10-11T11:02:22.264Z,18.93
2018-10-11T11:04:50.731Z,27.57
2018-10-11T11:07:19.234Z,22.53
2018-10-11T11:09:47.694Z,16.97
2018-10-11T11:12:16.153Z,25.10
2018-10-11T11:14:44.606Z,17.43
2018-10-11T11:17:13.066Z,16.43
2018-10-11T11:19:41.539Z,17.63
2018-10-11T11:22:10.051Z,22.30
2018-10-11T11:24:38.503Z,36.27
2018-10-11T11:27:06.970Z,19.10
2018-10-11T11:29:35.432Z,19.50
2018-10-11T11:32:03.923Z,17.73
2018-10-11T11:34:32.433Z,29.07
2018-10-11T11:37:00.922Z,19.23
2018-10-11T11:39:29.383Z,24.80
2018-10-11T11:41:57.855Z,17.83
2018-10-11T11:44:26.367Z,17.77
2018-10-11T11:46:54.844Z,19.07
2018-10-11T11:49:23.303Z,20.30
2018-10-11T11:51:51.864Z,18.23
2018-10-11T11:54:21.648Z,17.90
2018-10-11T11:56:51.054Z,18.73
2018-10-11T11:59:19.542Z,16.50
2018-10-11T12:01:48.216Z,17.73
2018-10-11T12:04:16.758Z,21.50
2018-10-11T12:06:45.230Z,26.57
2018-10-11T12:09:14.534Z,22.63
2018-10-11T12:11:43.559Z,18.10
2018-10-11T12:14:12.027Z,17.00
2018-10-11T12:16:40.564Z,17.20
2018-10-11T12:19:10.558Z,16.73
2018-10-11T12:21:39.330Z,16.70
2018-10-11T12:24:07.810Z,21.60
2018-10-11T12:26:36.275Z,18.30
2018-10-11T12:29:05.023Z,21.77
2018-10-11T12:31:33.501Z,16.90
2018-10-11T12:34:01.984Z,17.47
2018-10-11T12:36:30.498Z,23.13
2018-10-11T12:38:58.923Z,21.13
2018-10-11T12:41:27.410Z,18.67
2018-10-11T12:43:55.882Z,17.07
2018-10-11T12:46:24.378Z,18.83
2018-10-11T12:48:52.850Z,16.97
2018-10-11T12:51:21.314Z,21.57
2018-10-11T12:53:49.770Z,20.07
2018-10-11T12:56:18.302Z,17.63
2018-10-11T12:58:46.710Z,22.73
2018-10-11T13:01:17.271Z,18.63
2018-10-11T13:03:43.695Z,17.13
2018-10-11T13:06:12.163Z,20.90
2018-10-11T13:08:40.674Z,19.07
2018-10-11T13:11:09.175Z,18.90
2018-10-11T13:13:37.676Z,16.83
2018-10-11T13:16:06.179Z,17.07
2018-10-11T13:18:34.650Z,17.77
2018-10-11T13:21:03.115Z,18.97
2018-10-11T13:23:31.572Z,17.03
2018-10-11T13:26:00.030Z,16.77
2018-10-11T13:28:28.503Z,13.80
2018-10-11T13:30:56.958Z,14.20
2018-10-11T13:33:25.423Z,18.00
2018-10-11T13:35:53.891Z,16.57
2018-10-11T13:38:22.343Z,20.13
2018-10-11T13:40:53.257Z,18.40
2018-10-11T13:43:19.271Z,14.60
2018-10-11T13:45:48.464Z,15.00
2018-10-11T13:48:16.423Z,16.47
2018-10-11T13:50:44.919Z,20.40
2018-10-11T13:53:18.366Z,19.87
2018-10-11T13:55:45.272Z,15.60
2018-10-11T13:58:10.446Z,17.10
2018-10-11T14:00:38.939Z,18.93
2018-10-11T14:03:07.614Z,14.90
2018-10-11T14:05:36.075Z,16.90
2018-10-11T14:08:04.562Z,20.57
2018-10-11T14:10:33.110Z,43.83
2018-10-11T14:13:01.551Z,18.90
2018-10-11T14:15:30.004Z,22.40
2018-10-11T14:18:03.253Z,20.93
2018-10-11T14:20:26.966Z,24.73
2018-10-11T14:22:55.436Z,18.43
2018-10-11T14:25:23.921Z,19.47
2018-10-11T14:27:52.382Z,18.10
2018-10-11T14:30:20.834Z,19.87
2018-10-11T14:32:49.327Z,21.80
2018-10-11T14:35:17.794Z,19.70
2018-10-11T14:37:46.250Z,26.63
2018-10-11T14:40:14.764Z,20.33
2018-10-11T14:42:43.271Z,18.67
2018-10-11T14:45:11.834Z,21.07
2018-10-11T14:47:40.314Z,23.53
2018-10-11T14:50:08.924Z,22.17
2018-10-11T14:52:37.504Z,20.03
2018-10-11T14:55:06.407Z,17.60
2018-10-11T14:57:34.875Z,21.20
2018-10-11T15:00:03.539Z,16.80
2018-10-11T15:02:32.069Z,20.30
2018-10-11T15:05:00.535Z,19.47
2018-10-11T15:07:29.110Z,18.30
2018-10-11T15:09:57.598Z,19.17
2018-10-11T15:12:26.074Z,20.83
2018-10-11T15:14:54.543Z,23.43
2018-10-11T15:17:23.021Z,22.37
2018-10-11T15:19:51.494Z,18.90
2018-10-11T15:22:20.111Z,23.90
2018-10-11T15:24:48.564Z,20.97
2018-10-11T15:27:17.123Z,20.97
2018-10-11T15:29:45.647Z,23.07
2018-10-11T15:32:14.110Z,24.73
2018-10-11T15:34:42.590Z,23.50
2018-10-11T15:37:11.063Z,31.33
2018-10-11T15:39:39.527Z,24.57
2018-10-11T15:42:08.027Z,23.53
2018-10-11T15:44:36.508Z,24.93
2018-10-11T15:47:05.010Z,22.07
2018-10-11T15:49:33.534Z,21.60
2018-10-11T15:52:02.041Z,25.10
2018-10-11T15:54:30.495Z,33.60
2018-10-11T15:56:58.966Z,26.23
2018-10-11T15:59:27.435Z,24.70
2018-10-11T16:01:55.898Z,21.77
2018-10-11T16:04:24.366Z,21.97
2018-10-11T16:06:52.852Z,25.73
2018-10-11T16:09:21.360Z,25.17
2018-10-11T16:11:49.878Z,30.80
2018-10-11T16:14:18.337Z,23.63
2018-10-11T16:16:46.794Z,29.67
2018-10-11T16:19:15.331Z,36.00
2018-10-11T16:21:43.830Z,23.43
2018-10-11T16:24:12.310Z,26.93
2018-10-11T16:26:40.799Z,30.70
2018-10-11T16:29:09.343Z,28.50
2018-10-11T16:31:37.874Z,22.70
2018-10-11T16:34:06.336Z,25.00
2018-10-11T16:36:34.809Z,27.77
2018-10-11T16:39:03.733Z,26.53
2018-10-11T16:41:32.271Z,29.50
2018-10-11T16:44:00.723Z,26.40
2018-10-11T16:46:29.208Z,25.80
2018-10-11T16:48:57.671Z,29.77
2018-10-11T16:51:26.139Z,24.33
2018-10-11T16:53:54.610Z,28.23
2018-10-11T16:56:23.085Z,26.63
2018-10-11T16:58:51.562Z,26.33
2018-10-11T17:01:20.023Z,29.63
2018-10-11T17:03:48.479Z,24.90
2018-10-11T17:06:16.939Z,24.83
2018-10-11T17:08:45.404Z,31.37
2018-10-11T17:11:13.886Z,24.73
2018-10-11T17:13:42.447Z,27.10
2018-10-11T17:16:10.914Z,23.63
2018-10-11T17:18:39.374Z,27.63
2018-10-11T17:21:07.890Z,25.80
2018-10-11T17:23:36.579Z,27.17
2018-10-11T17:26:05.234Z,34.57
2018-10-11T17:28:33.748Z,28.10
2018-10-11T17:31:02.227Z,28.07
2018-10-11T17:33:30.766Z,25.43
2018-10-11T17:35:59.263Z,27.27
2018-10-11T17:38:27.731Z,27.67
2018-10-11T17:40:56.235Z,40.00
2018-10-11T17:43:24.694Z,27.43
2018-10-11T17:45:53.164Z,25.80
2018-10-11T17:48:21.619Z,28.80
2018-10-11T17:50:50.083Z,29.80
2018-10-11T17:53:18.554Z,28.93
2018-10-11T17:55:47.023Z,29.33
2018-10-11T17:58:15.490Z,31.57
2018-10-11T18:00:43.974Z,30.50
2018-10-11T18:03:12.441Z,29.20
2018-10-11T18:05:40.934Z,37.60
2018-10-11T18:08:09.419Z,35.30
2018-10-11T18:10:37.887Z,28.67
2018-10-11T18:13:06.551Z,27.37
2018-10-11T18:15:35.088Z,27.37
2018-10-11T18:18:03.588Z,28.33
2018-10-11T18:20:32.223Z,29.97
2018-10-11T18:23:00.676Z,31.27
2018-10-11T18:25:29.146Z,38.20
2018-10-11T18:27:57.610Z,29.63
2018-10-11T18:30:26.087Z,42.63
2018-10-11T18:32:54.580Z,32.30
2018-10-11T18:35:23.910Z,31.07
2018-10-11T18:37:52.414Z,31.90
2018-10-11T18:40:20.901Z,35.97
2018-10-11T18:42:49.404Z,31.90
2018-10-11T18:45:18.028Z,36.43
2018-10-11T18:47:46.499Z,28.03
2018-10-11T18:50:14.987Z,35.00
2018-10-11T18:52:43.455Z,34.07
2018-10-11T18:55:11.937Z,28.47
2018-10-11T18:57:40.469Z,30.67
2018-10-11T19:00:09.020Z,38.17
2018-10-11T19:02:37.543Z,34.00
2018-10-11T19:05:06.096Z,32.23
2018-10-11T19:07:34.590Z,39.37
2018-10-11T19:10:03.142Z,40.17
2018-10-11T19:12:31.646Z,36.40
2018-10-11T19:15:00.109Z,35.87
2018-10-11T19:17:28.589Z,37.50
2018-10-11T19:19:57.065Z,33.80
2018-10-11T19:22:25.532Z,36.57
2018-10-11T19:24:54.038Z,35.50
2018-10-11T19:27:22.522Z,34.03
2018-10-11T19:29:50.994Z,27.40
2018-10-11T19:32:19.522Z,32.00
2018-10-11T19:34:48.006Z,39.90
2018-10-11T19:37:16.698Z,40.93
2018-10-11T19:39:45.159Z,38.23
2018-10-11T19:42:13.626Z,30.33
2018-10-11T19:44:42.127Z,37.97
2018-10-11T19:47:10.718Z,33.37
2018-10-11T19:49:39.185Z,36.27
2018-10-11T19:52:07.725Z,38.40
2018-10-11T19:54:36.187Z,30.20
2018-10-11T19:57:04.667Z,38.67
2018-10-11T19:59:33.198Z,35.40
2018-10-11T20:02:01.667Z,32.80
2018-10-11T20:04:30.121Z,39.47
2018-10-11T20:06:58.615Z,34.27
2018-10-11T20:09:27.096Z,35.90
2018-10-11T20:11:55.563Z,36.53
2018-10-11T20:14:24.039Z,30.53
2018-10-11T20:16:52.598Z,35.80
2018-10-11T20:19:21.062Z,31.70
2018-10-11T20:21:49.522Z,34.73
2018-10-11T20:24:17.991Z,40.70
2018-10-11T20:26:46.447Z,35.90
2018-10-11T20:29:14.914Z,33.17
2018-10-11T20:31:43.379Z,35.80
2018-10-11T20:34:11.855Z,37.17
2018-10-11T20:36:40.317Z,35.87
2018-10-11T20:39:09.758Z,35.00
2018-10-11T20:41:38.597Z,39.27
2018-10-11T20:44:07.111Z,31.73
2018-10-11T20:46:35.582Z,33.07
2018-10-11T20:49:04.067Z,39.33
2018-10-11T20:51:32.642Z,39.83
2018-10-11T20:54:01.099Z,32.47
2018-10-11T20:56:29.566Z,36.60
2018-10-11T20:58:58.028Z,48.43
2018-10-11T21:01:26.490Z,42.70
2018-10-11T21:03:54.949Z,49.83
2018-10-11T21:06:23.430Z,39.83
2018-10-11T21:08:51.882Z,40.47
2018-10-11T21:11:20.350Z,38.23
2018-10-11T21:13:48.839Z,39.57
2018-10-11T21:16:17.323Z,47.73
2018-10-11T21:18:45.775Z,41.30
2018-10-11T21:21:14.290Z,45.67
2018-10-11T21:23:42.920Z,44.77
2018-10-11T21:26:11.392Z,42.80
2018-10-11T21:28:39.860Z,43.73
2018-10-11T21:31:08.315Z,41.13
2018-10-11T21:33:36.811Z,33.73
2018-10-11T21:36:05.398Z,43.20
2018-10-11T21:38:33.848Z,35.20
2018-10-11T21:41:02.324Z,43.37
2018-10-11T21:43:30.815Z,41.47
2018-10-11T21:45:59.279Z,37.87
2018-10-11T21:48:27.756Z,40.70
2018-10-11T21:50:56.211Z,47.00
2018-10-11T21:53:24.679Z,47.70
2018-10-11T21:55:53.142Z,42.90
2018-10-11T21:58:21.642Z,46.93
2018-10-11T22:00:55.402Z,48.70
2018-10-11T22:03:24.151Z,48.03
2018-10-11T22:05:52.639Z,52.67
2018-10-11T22:08:21.116Z,44.13
2018-10-11T22:10:49.587Z,56.00
2018-10-11T22:13:18.053Z,50.03
2018-10-11T22:15:46.523Z,47.73
2018-10-11T22:18:14.978Z,45.63
2018-10-11T22:20:43.512Z,49.50
2018-10-11T22:23:11.950Z,49.80
2018-10-11T22:25:40.414Z,46.80
2018-10-11T22:28:08.956Z,52.50
2018-10-11T22:30:37.495Z,53.27
2018-10-11T22:33:05.953Z,53.17
2018-10-11T22:35:34.394Z,53.73
2018-10-11T22:38:02.859Z,50.90
2018-10-11T22:40:31.557Z,55.10
2018-10-11T22:43:00.037Z,54.17
2018-10-11T22:45:28.538Z,53.73
2018-10-11T22:47:57.319Z,42.63
2018-10-11T22:50:27.038Z,42.20
2018-10-11T22:52:56.126Z,46.83
2018-10-11T22:55:25.542Z,52.90
2018-10-11T22:57:54.674Z,43.83
2018-10-11T23:00:23.141Z,41.20
2018-10-11T23:02:52.203Z,49.10
2018-10-11T23:05:20.774Z,53.53
2018-10-11T23:07:49.478Z,49.90
2018-10-11T23:10:17.955Z,49.60
2018-10-11T23:12:46.411Z,53.73
2018-10-11T23:15:14.988Z,48.10
2018-10-11T23:17:43.358Z,42.27
2018-10-11T23:20:12.107Z,42.43
2018-10-11T23:22:41.583Z,42.43
2018-10-11T23:25:10.608Z,44.77
2018-10-11T23:27:39.462Z,43.67
2018-10-11T23:30:08.383Z,41.33
2018-10-11T23:32:36.910Z,39.77
2018-10-11T23:35:05.991Z,43.40
2018-10-11T23:37:34.484Z,47.07
2018-10-11T23:40:02.947Z,58.77
2018-10-11T23:42:31.450Z,58.33
2018-10-11T23:44:59.910Z,65.97
2018-10-11T23:47:28.428Z,60.20
2018-10-11T23:49:56.926Z,67.07
2018-10-11T23:52:25.606Z,66.47
2018-10-11T23:54:54.136Z,58.50
2018-10-11T23:57:22.608Z,59.90
2018-10-11T23:59:51.063Z,54.33
